sensor_id;sensor_type;location;lat;lon;timestamp;P1;durP1;ratioP1;P2;durP2;ratioP2
3549;SDS011;45572;48.804;8.330;2023-07-13T00:00:24;4.60;;;1.70;;
3549;SDS011;45572;48.804;8.330;2023-07-13T00:02:52;5.17;;;1.73;;
3549;SDS011;45572;48.804;8.330;2023-07-13T00:05:22;3.90;;;1.50;;
3549;SDS011;45572;48.804;8.330;2023-07-13T00:08:00;6.20;;;2.03;;
3549;SDS011;45572;48.804;8.330;2023-07-13T00:10:28;2.50;;;1.50;;
3549;SDS011;45572;48.804;8.330;2023-07-13T00:12:55;2.23;;;1.43;;
3549;SDS011;45572;48.804;8.330;2023-07-13T00:15:24;6.20;;;1.47;;
3549;SDS011;45572;48.804;8.330;2023-07-13T00:17:53;5.20;;;1.43;;
3549;SDS011;45572;48.804;8.330;2023-07-13T00:20:24;6.53;;;1.40;;
3549;SDS011;45572;48.804;8.330;2023-07-13T00:22:52;2.20;;;1.57;;
3549;SDS011;45572;48.804;8.330;2023-07-13T00:25:20;4.23;;;1.63;;
3549;SDS011;45572;48.804;8.330;2023-07-13T00:27:50;7.40;;;2.07;;
3549;SDS011;45572;48.804;8.330;2023-07-13T00:30:18;7.17;;;1.50;;
3549;SDS011;45572;48.804;8.330;2023-07-13T00:32:46;5.03;;;1.67;;
3549;SDS011;45572;48.804;8.330;2023-07-13T00:35:14;3.30;;;1.83;;
3549;SDS011;45572;48.804;8.330;2023-07-13T00:37:44;3.97;;;1.95;;
3549;SDS011;45572;48.804;8.330;2023-07-13T00:40:12;2.07;;;1.33;;
3549;SDS011;45572;48.804;8.330;2023-07-13T00:42:41;11.57;;;1.75;;
3549;SDS011;45572;48.804;8.330;2023-07-13T00:48:07;3.78;;;1.70;;
3549;SDS011;45572;48.804;8.330;2023-07-13T00:50:35;3.95;;;1.48;;
3549;SDS011;45572;48.804;8.330;2023-07-13T00:53:04;6.90;;;2.20;;
3549;SDS011;45572;48.804;8.330;2023-07-13T00:55:32;3.03;;;1.45;;
3549;SDS011;45572;48.804;8.330;2023-07-13T00:58:00;7.88;;;1.98;;
3549;SDS011;45572;48.804;8.330;2023-07-13T01:00:32;6.45;;;1.67;;
3549;SDS011;45572;48.804;8.330;2023-07-13T01:03:02;5.28;;;1.85;;
3549;SDS011;45572;48.804;8.330;2023-07-13T01:05:31;3.67;;;1.85;;
3549;SDS011;45572;48.804;8.330;2023-07-13T01:08:01;3.83;;;1.50;;
3549;SDS011;45572;48.804;8.330;2023-07-13T01:10:33;4.53;;;1.73;;
3549;SDS011;45572;48.804;8.330;2023-07-13T01:13:05;4.40;;;1.60;;
3549;SDS011;45572;48.804;8.330;2023-07-13T01:15:34;4.90;;;1.65;;
3549;SDS011;45572;48.804;8.330;2023-07-13T01:18:04;2.83;;;1.60;;
3549;SDS011;45572;48.804;8.330;2023-07-13T01:20:34;6.85;;;2.20;;
3549;SDS011;45572;48.804;8.330;2023-07-13T01:23:05;3.38;;;2.20;;
3549;SDS011;45572;48.804;8.330;2023-07-13T01:25:35;2.20;;;1.65;;
3549;SDS011;45572;48.804;8.330;2023-07-13T01:28:04;5.55;;;1.85;;
3549;SDS011;45572;48.804;8.330;2023-07-13T01:30:36;3.20;;;1.83;;
3549;SDS011;45572;48.804;8.330;2023-07-13T01:33:06;7.68;;;1.70;;
3549;SDS011;45572;48.804;8.330;2023-07-13T01:35:34;3.85;;;1.60;;
3549;SDS011;45572;48.804;8.330;2023-07-13T01:38:02;3.47;;;1.80;;
3549;SDS011;45572;48.804;8.330;2023-07-13T01:40:31;3.80;;;1.27;;
3549;SDS011;45572;48.804;8.330;2023-07-13T01:42:59;2.85;;;1.85;;
3549;SDS011;45572;48.804;8.330;2023-07-13T01:45:27;3.90;;;1.90;;
3549;SDS011;45572;48.804;8.330;2023-07-13T01:47:55;11.85;;;2.03;;
3549;SDS011;45572;48.804;8.330;2023-07-13T01:50:24;2.85;;;1.70;;
3549;SDS011;45572;48.804;8.330;2023-07-13T01:52:52;8.23;;;1.85;;
3549;SDS011;45572;48.804;8.330;2023-07-13T01:55:20;5.25;;;2.13;;
3549;SDS011;45572;48.804;8.330;2023-07-13T01:57:49;3.05;;;2.08;;
3549;SDS011;45572;48.804;8.330;2023-07-13T02:00:17;4.60;;;1.70;;
3549;SDS011;45572;48.804;8.330;2023-07-13T02:02:46;2.95;;;1.65;;
3549;SDS011;45572;48.804;8.330;2023-07-13T02:05:14;4.38;;;1.70;;
3549;SDS011;45572;48.804;8.330;2023-07-13T02:07:42;3.88;;;1.95;;
3549;SDS011;45572;48.804;8.330;2023-07-13T02:10:10;4.68;;;2.05;;
3549;SDS011;45572;48.804;8.330;2023-07-13T02:12:38;4.05;;;1.73;;
3549;SDS011;45572;48.804;8.330;2023-07-13T02:15:11;2.70;;;1.75;;
3549;SDS011;45572;48.804;8.330;2023-07-13T02:17:38;5.20;;;2.08;;
3549;SDS011;45572;48.804;8.330;2023-07-13T02:20:07;4.88;;;1.98;;
3549;SDS011;45572;48.804;8.330;2023-07-13T02:22:35;4.57;;;1.75;;
3549;SDS011;45572;48.804;8.330;2023-07-13T02:25:03;3.85;;;2.13;;
3549;SDS011;45572;48.804;8.330;2023-07-13T02:27:32;12.18;;;2.38;;
3549;SDS011;45572;48.804;8.330;2023-07-13T02:30:00;3.80;;;2.10;;
3549;SDS011;45572;48.804;8.330;2023-07-13T02:32:29;4.57;;;1.95;;
3549;SDS011;45572;48.804;8.330;2023-07-13T02:34:56;4.88;;;1.33;;
3549;SDS011;45572;48.804;8.330;2023-07-13T02:37:24;5.70;;;2.08;;
3549;SDS011;45572;48.804;8.330;2023-07-13T02:39:52;12.93;;;2.33;;
3549;SDS011;45572;48.804;8.330;2023-07-13T02:42:22;3.28;;;1.70;;
3549;SDS011;45572;48.804;8.330;2023-07-13T02:44:49;3.40;;;1.98;;
3549;SDS011;45572;48.804;8.330;2023-07-13T02:47:17;6.82;;;2.70;;
3549;SDS011;45572;48.804;8.330;2023-07-13T02:49:46;4.97;;;1.80;;
3549;SDS011;45572;48.804;8.330;2023-07-13T02:52:14;3.17;;;2.10;;
3549;SDS011;45572;48.804;8.330;2023-07-13T02:54:42;7.38;;;2.15;;
3549;SDS011;45572;48.804;8.330;2023-07-13T02:57:09;9.93;;;2.00;;
3549;SDS011;45572;48.804;8.330;2023-07-13T02:59:37;2.50;;;1.70;;
3549;SDS011;45572;48.804;8.330;2023-07-13T03:02:05;2.40;;;1.65;;
3549;SDS011;45572;48.804;8.330;2023-07-13T03:04:34;3.65;;;2.00;;
3549;SDS011;45572;48.804;8.330;2023-07-13T03:07:04;3.45;;;2.10;;
3549;SDS011;45572;48.804;8.330;2023-07-13T03:09:35;5.40;;;2.05;;
3549;SDS011;45572;48.804;8.330;2023-07-13T03:12:06;2.60;;;1.73;;
3549;SDS011;45572;48.804;8.330;2023-07-13T03:14:35;5.53;;;1.90;;
3549;SDS011;45572;48.804;8.330;2023-07-13T03:17:05;4.95;;;2.40;;
3549;SDS011;45572;48.804;8.330;2023-07-13T03:19:37;2.05;;;1.85;;
3549;SDS011;45572;48.804;8.330;2023-07-13T03:22:06;7.78;;;2.28;;
3549;SDS011;45572;48.804;8.330;2023-07-13T03:24:36;4.53;;;1.48;;
3549;SDS011;45572;48.804;8.330;2023-07-13T03:27:06;10.23;;;2.03;;
3549;SDS011;45572;48.804;8.330;2023-07-13T03:29:38;6.35;;;2.50;;
3549;SDS011;45572;48.804;8.330;2023-07-13T03:32:06;5.15;;;2.00;;
3549;SDS011;45572;48.804;8.330;2023-07-13T03:34:34;4.50;;;2.20;;
3549;SDS011;45572;48.804;8.330;2023-07-13T03:37:02;7.05;;;2.55;;
3549;SDS011;45572;48.804;8.330;2023-07-13T03:39:31;6.55;;;1.95;;
3549;SDS011;45572;48.804;8.330;2023-07-13T03:41:59;6.40;;;2.63;;
3549;SDS011;45572;48.804;8.330;2023-07-13T03:44:28;6.00;;;1.70;;
3549;SDS011;45572;48.804;8.330;2023-07-13T03:46:56;4.30;;;2.83;;
3549;SDS011;45572;48.804;8.330;2023-07-13T03:49:24;4.65;;;2.80;;
3549;SDS011;45572;48.804;8.330;2023-07-13T03:51:52;4.50;;;2.25;;
3549;SDS011;45572;48.804;8.330;2023-07-13T03:54:20;4.95;;;2.17;;
3549;SDS011;45572;48.804;8.330;2023-07-13T03:56:49;4.80;;;2.35;;
3549;SDS011;45572;48.804;8.330;2023-07-13T03:59:19;3.90;;;2.05;;
3549;SDS011;45572;48.804;8.330;2023-07-13T04:01:47;2.95;;;1.92;;
3549;SDS011;45572;48.804;8.330;2023-07-13T04:04:15;5.32;;;1.85;;
3549;SDS011;45572;48.804;8.330;2023-07-13T04:06:42;8.15;;;2.10;;
3549;SDS011;45572;48.804;8.330;2023-07-13T04:09:11;3.25;;;2.08;;
3549;SDS011;45572;48.804;8.330;2023-07-13T04:11:39;4.07;;;1.90;;
3549;SDS011;45572;48.804;8.330;2023-07-13T04:14:08;4.50;;;2.50;;
3549;SDS011;45572;48.804;8.330;2023-07-13T04:16:35;3.05;;;1.75;;
3549;SDS011;45572;48.804;8.330;2023-07-13T04:19:03;4.07;;;1.77;;
3549;SDS011;45572;48.804;8.330;2023-07-13T04:21:31;3.78;;;1.60;;
3549;SDS011;45572;48.804;8.330;2023-07-13T04:23:59;9.02;;;2.90;;
3549;SDS011;45572;48.804;8.330;2023-07-13T04:26:27;8.85;;;2.25;;
3549;SDS011;45572;48.804;8.330;2023-07-13T04:28:55;6.00;;;2.50;;
3549;SDS011;45572;48.804;8.330;2023-07-13T04:31:25;3.03;;;2.03;;
3549;SDS011;45572;48.804;8.330;2023-07-13T04:33:53;2.60;;;1.85;;
3549;SDS011;45572;48.804;8.330;2023-07-13T04:36:21;3.88;;;1.95;;
3549;SDS011;45572;48.804;8.330;2023-07-13T04:38:48;7.85;;;2.10;;
3549;SDS011;45572;48.804;8.330;2023-07-13T04:41:16;7.70;;;2.40;;
3549;SDS011;45572;48.804;8.330;2023-07-13T04:43:44;3.78;;;2.47;;
3549;SDS011;45572;48.804;8.330;2023-07-13T04:46:12;4.57;;;2.58;;
3549;SDS011;45572;48.804;8.330;2023-07-13T04:48:43;4.38;;;2.88;;
3549;SDS011;45572;48.804;8.330;2023-07-13T04:51:11;6.78;;;2.70;;
3549;SDS011;45572;48.804;8.330;2023-07-13T04:53:39;3.50;;;2.55;;
3549;SDS011;45572;48.804;8.330;2023-07-13T04:56:07;4.50;;;1.80;;
3549;SDS011;45572;48.804;8.330;2023-07-13T04:58:35;7.93;;;1.90;;
3549;SDS011;45572;48.804;8.330;2023-07-13T05:01:03;3.58;;;1.80;;
3549;SDS011;45572;48.804;8.330;2023-07-13T05:03:36;6.85;;;1.52;;
3549;SDS011;45572;48.804;8.330;2023-07-13T05:06:06;9.32;;;2.20;;
3549;SDS011;45572;48.804;8.330;2023-07-13T05:08:38;3.55;;;1.67;;
3549;SDS011;45572;48.804;8.330;2023-07-13T05:11:06;3.28;;;2.00;;
3549;SDS011;45572;48.804;8.330;2023-07-13T05:13:35;4.70;;;2.33;;
3549;SDS011;45572;48.804;8.330;2023-07-13T05:16:03;3.83;;;2.10;;
3549;SDS011;45572;48.804;8.330;2023-07-13T05:18:33;4.28;;;1.42;;
3549;SDS011;45572;48.804;8.330;2023-07-13T05:21:02;4.35;;;2.65;;
3549;SDS011;45572;48.804;8.330;2023-07-13T05:23:34;7.22;;;2.65;;
3549;SDS011;45572;48.804;8.330;2023-07-13T05:26:02;2.63;;;1.65;;
3549;SDS011;45572;48.804;8.330;2023-07-13T05:28:37;2.55;;;1.83;;
3549;SDS011;45572;48.804;8.330;2023-07-13T05:31:07;3.47;;;2.00;;
3549;SDS011;45572;48.804;8.330;2023-07-13T05:33:36;3.78;;;1.90;;
3549;SDS011;45572;48.804;8.330;2023-07-13T05:36:03;7.03;;;2.20;;
3549;SDS011;45572;48.804;8.330;2023-07-13T05:38:34;2.63;;;1.73;;
3549;SDS011;45572;48.804;8.330;2023-07-13T05:41:02;4.77;;;1.93;;
3549;SDS011;45572;48.804;8.330;2023-07-13T05:43:31;6.07;;;2.70;;
3549;SDS011;45572;48.804;8.330;2023-07-13T05:45:59;1.60;;;1.37;;
3549;SDS011;45572;48.804;8.330;2023-07-13T05:48:27;3.37;;;2.07;;
3549;SDS011;45572;48.804;8.330;2023-07-13T05:50:55;3.63;;;1.90;;
3549;SDS011;45572;48.804;8.330;2023-07-13T05:53:22;3.13;;;1.73;;
3549;SDS011;45572;48.804;8.330;2023-07-13T05:55:52;3.33;;;2.00;;
3549;SDS011;45572;48.804;8.330;2023-07-13T05:58:23;3.10;;;2.10;;
3549;SDS011;45572;48.804;8.330;2023-07-13T06:00:58;4.33;;;1.63;;
3549;SDS011;45572;48.804;8.330;2023-07-13T06:03:30;2.90;;;1.80;;
3549;SDS011;45572;48.804;8.330;2023-07-13T06:05:58;6.87;;;2.07;;
3549;SDS011;45572;48.804;8.330;2023-07-13T06:08:32;3.93;;;1.80;;
3549;SDS011;45572;48.804;8.330;2023-07-13T06:11:03;4.10;;;1.70;;
3549;SDS011;45572;48.804;8.330;2023-07-13T06:13:33;3.60;;;1.97;;
3549;SDS011;45572;48.804;8.330;2023-07-13T06:16:01;4.93;;;1.83;;
3549;SDS011;45572;48.804;8.330;2023-07-13T06:18:31;3.43;;;1.80;;
3549;SDS011;45572;48.804;8.330;2023-07-13T06:21:00;3.30;;;1.50;;
3549;SDS011;45572;48.804;8.330;2023-07-13T06:23:33;3.73;;;1.33;;
3549;SDS011;45572;48.804;8.330;2023-07-13T06:26:05;6.67;;;1.20;;
3549;SDS011;45572;48.804;8.330;2023-07-13T06:28:34;2.60;;;1.43;;
3549;SDS011;45572;48.804;8.330;2023-07-13T06:31:04;4.33;;;1.63;;
3549;SDS011;45572;48.804;8.330;2023-07-13T06:33:35;4.50;;;1.43;;
3549;SDS011;45572;48.804;8.330;2023-07-13T06:36:03;2.47;;;1.20;;
3549;SDS011;45572;48.804;8.330;2023-07-13T06:38:33;3.00;;;1.03;;
3549;SDS011;45572;48.804;8.330;2023-07-13T06:41:02;3.80;;;1.40;;
3549;SDS011;45572;48.804;8.330;2023-07-13T06:43:31;4.27;;;1.50;;
3549;SDS011;45572;48.804;8.330;2023-07-13T06:46:01;3.83;;;1.10;;
3549;SDS011;45572;48.804;8.330;2023-07-13T06:48:30;3.43;;;1.00;;
3549;SDS011;45572;48.804;8.330;2023-07-13T06:51:01;3.03;;;1.40;;
3549;SDS011;45572;48.804;8.330;2023-07-13T06:53:30;3.60;;;1.20;;
3549;SDS011;45572;48.804;8.330;2023-07-13T06:56:00;1.80;;;1.53;;
3549;SDS011;45572;48.804;8.330;2023-07-13T06:58:28;9.00;;;1.50;;
3549;SDS011;45572;48.804;8.330;2023-07-13T07:00:58;2.50;;;0.93;;
3549;SDS011;45572;48.804;8.330;2023-07-13T07:03:28;2.77;;;1.40;;
3549;SDS011;45572;48.804;8.330;2023-07-13T07:05:59;1.80;;;1.10;;
3549;SDS011;45572;48.804;8.330;2023-07-13T07:08:29;2.57;;;1.07;;
3549;SDS011;45572;48.804;8.330;2023-07-13T07:10:57;2.93;;;1.17;;
3549;SDS011;45572;48.804;8.330;2023-07-13T07:13:24;1.90;;;0.80;;
3549;SDS011;45572;48.804;8.330;2023-07-13T07:15:57;4.93;;;1.13;;
3549;SDS011;45572;48.804;8.330;2023-07-13T07:18:27;1.33;;;0.90;;
3549;SDS011;45572;48.804;8.330;2023-07-13T07:20:57;3.50;;;1.20;;
3549;SDS011;45572;48.804;8.330;2023-07-13T07:23:26;2.63;;;1.03;;
3549;SDS011;45572;48.804;8.330;2023-07-13T07:25:54;2.50;;;1.27;;
3549;SDS011;45572;48.804;8.330;2023-07-13T07:28:22;4.63;;;1.23;;
3549;SDS011;45572;48.804;8.330;2023-07-13T07:30:54;2.20;;;0.93;;
3549;SDS011;45572;48.804;8.330;2023-07-13T07:33:27;3.00;;;1.20;;
3549;SDS011;45572;48.804;8.330;2023-07-13T07:35:55;2.77;;;1.30;;
3549;SDS011;45572;48.804;8.330;2023-07-13T07:38:26;3.43;;;1.20;;
3549;SDS011;45572;48.804;8.330;2023-07-13T07:40:55;5.03;;;1.37;;
3549;SDS011;45572;48.804;8.330;2023-07-13T07:43:28;5.50;;;1.00;;
3549;SDS011;45572;48.804;8.330;2023-07-13T07:45:56;2.80;;;1.30;;
3549;SDS011;45572;48.804;8.330;2023-07-13T07:48:30;4.97;;;1.47;;
3549;SDS011;45572;48.804;8.330;2023-07-13T07:51:01;2.30;;;1.20;;
3549;SDS011;45572;48.804;8.330;2023-07-13T07:53:29;5.07;;;1.47;;
3549;SDS011;45572;48.804;8.330;2023-07-13T07:55:59;1.53;;;0.90;;
3549;SDS011;45572;48.804;8.330;2023-07-13T07:58:47;3.13;;;1.20;;
3549;SDS011;45572;48.804;8.330;2023-07-13T08:01:18;4.40;;;1.50;;
3549;SDS011;45572;48.804;8.330;2023-07-13T08:03:50;2.70;;;1.30;;
3549;SDS011;45572;48.804;8.330;2023-07-13T08:06:25;4.63;;;1.10;;
3549;SDS011;45572;48.804;8.330;2023-07-13T08:09:10;1.97;;;1.20;;
3549;SDS011;45572;48.804;8.330;2023-07-13T08:11:41;4.23;;;1.50;;
3549;SDS011;45572;48.804;8.330;2023-07-13T08:14:12;5.50;;;1.03;;
3549;SDS011;45572;48.804;8.330;2023-07-13T08:16:42;7.13;;;1.57;;
3549;SDS011;45572;48.804;8.330;2023-07-13T08:19:13;3.30;;;1.03;;
3549;SDS011;45572;48.804;8.330;2023-07-13T08:21:41;3.67;;;1.60;;
3549;SDS011;45572;48.804;8.330;2023-07-13T08:24:11;5.60;;;1.80;;
3549;SDS011;45572;48.804;8.330;2023-07-13T08:26:39;2.20;;;1.30;;
3549;SDS011;45572;48.804;8.330;2023-07-13T08:29:07;3.20;;;0.90;;
3549;SDS011;45572;48.804;8.330;2023-07-13T08:31:39;5.50;;;1.50;;
3549;SDS011;45572;48.804;8.330;2023-07-13T08:34:07;3.63;;;1.37;;
3549;SDS011;45572;48.804;8.330;2023-07-13T08:36:38;2.37;;;1.00;;
3549;SDS011;45572;48.804;8.330;2023-07-13T08:39:06;3.23;;;1.30;;
3549;SDS011;45572;48.804;8.330;2023-07-13T08:41:36;2.47;;;0.90;;
3549;SDS011;45572;48.804;8.330;2023-07-13T08:44:07;2.47;;;0.77;;
3549;SDS011;45572;48.804;8.330;2023-07-13T08:46:48;2.10;;;0.90;;
3549;SDS011;45572;48.804;8.330;2023-07-13T08:49:19;1.87;;;1.10;;
3549;SDS011;45572;48.804;8.330;2023-07-13T08:51:53;2.33;;;1.03;;
3549;SDS011;45572;48.804;8.330;2023-07-13T08:54:27;6.03;;;0.90;;
3549;SDS011;45572;48.804;8.330;2023-07-13T08:56:58;6.83;;;1.03;;
3549;SDS011;45572;48.804;8.330;2023-07-13T08:59:30;2.33;;;0.90;;
3549;SDS011;45572;48.804;8.330;2023-07-13T09:02:04;3.77;;;0.93;;
3549;SDS011;45572;48.804;8.330;2023-07-13T09:04:45;1.70;;;0.60;;
3549;SDS011;45572;48.804;8.330;2023-07-13T09:07:21;2.67;;;1.10;;
3549;SDS011;45572;48.804;8.330;2023-07-13T09:10:02;3.30;;;0.90;;
3549;SDS011;45572;48.804;8.330;2023-07-13T09:12:40;3.20;;;0.90;;
3549;SDS011;45572;48.804;8.330;2023-07-13T09:15:21;2.90;;;0.73;;
3549;SDS011;45572;48.804;8.330;2023-07-13T09:17:54;6.53;;;0.97;;
3549;SDS011;45572;48.804;8.330;2023-07-13T09:20:26;4.60;;;0.90;;
3549;SDS011;45572;48.804;8.330;2023-07-13T09:23:00;2.13;;;0.60;;
3549;SDS011;45572;48.804;8.330;2023-07-13T09:25:33;4.33;;;1.00;;
3549;SDS011;45572;48.804;8.330;2023-07-13T09:28:08;1.40;;;1.10;;
3549;SDS011;45572;48.804;8.330;2023-07-13T09:30:43;2.90;;;0.97;;
3549;SDS011;45572;48.804;8.330;2023-07-13T09:33:17;4.20;;;1.23;;
3549;SDS011;45572;48.804;8.330;2023-07-13T09:35:45;2.03;;;1.10;;
3549;SDS011;45572;48.804;8.330;2023-07-13T09:38:16;3.60;;;1.27;;
3549;SDS011;45572;48.804;8.330;2023-07-13T09:40:59;1.37;;;0.87;;
3549;SDS011;45572;48.804;8.330;2023-07-13T09:43:35;1.63;;;0.73;;
3549;SDS011;45572;48.804;8.330;2023-07-13T09:46:03;2.97;;;0.90;;
3549;SDS011;45572;48.804;8.330;2023-07-13T09:48:33;1.30;;;0.90;;
3549;SDS011;45572;48.804;8.330;2023-07-13T09:51:06;2.57;;;0.87;;
3549;SDS011;45572;48.804;8.330;2023-07-13T09:53:42;2.93;;;0.93;;
3549;SDS011;45572;48.804;8.330;2023-07-13T09:56:19;3.77;;;1.20;;
3549;SDS011;45572;48.804;8.330;2023-07-13T09:58:50;3.83;;;0.97;;
3549;SDS011;45572;48.804;8.330;2023-07-13T10:01:30;4.97;;;0.97;;
3549;SDS011;45572;48.804;8.330;2023-07-13T10:04:02;1.10;;;0.80;;
3549;SDS011;45572;48.804;8.330;2023-07-13T10:06:39;2.50;;;1.00;;
3549;SDS011;45572;48.804;8.330;2023-07-13T10:09:13;3.23;;;0.80;;
3549;SDS011;45572;48.804;8.330;2023-07-13T10:11:43;1.30;;;0.80;;
3549;SDS011;45572;48.804;8.330;2023-07-13T10:14:13;1.90;;;0.90;;
3549;SDS011;45572;48.804;8.330;2023-07-13T10:16:43;1.57;;;1.10;;
3549;SDS011;45572;48.804;8.330;2023-07-13T10:19:15;6.73;;;1.40;;
3549;SDS011;45572;48.804;8.330;2023-07-13T10:21:50;1.83;;;0.87;;
3549;SDS011;45572;48.804;8.330;2023-07-13T10:24:27;2.90;;;1.43;;
3549;SDS011;45572;48.804;8.330;2023-07-13T10:27:00;3.70;;;1.10;;
3549;SDS011;45572;48.804;8.330;2023-07-13T10:29:35;3.70;;;1.23;;
3549;SDS011;45572;48.804;8.330;2023-07-13T10:32:07;4.13;;;1.10;;
3549;SDS011;45572;48.804;8.330;2023-07-13T10:34:40;2.10;;;1.10;;
3549;SDS011;45572;48.804;8.330;2023-07-13T10:37:14;3.80;;;1.60;;
3549;SDS011;45572;48.804;8.330;2023-07-13T10:39:52;4.87;;;1.43;;
3549;SDS011;45572;48.804;8.330;2023-07-13T10:42:25;2.33;;;1.00;;
3549;SDS011;45572;48.804;8.330;2023-07-13T10:44:58;2.07;;;0.93;;
3549;SDS011;45572;48.804;8.330;2023-07-13T10:47:27;2.30;;;1.07;;
3549;SDS011;45572;48.804;8.330;2023-07-13T10:49:56;3.20;;;1.03;;
3549;SDS011;45572;48.804;8.330;2023-07-13T10:58:13;1.30;;;0.87;;
3549;SDS011;45572;48.804;8.330;2023-07-13T11:00:47;10.80;;;1.47;;
3549;SDS011;45572;48.804;8.330;2023-07-13T11:03:22;2.40;;;1.20;;
3549;SDS011;45572;48.804;8.330;2023-07-13T11:06:04;2.27;;;1.13;;
3549;SDS011;45572;48.804;8.330;2023-07-13T11:08:36;2.40;;;1.13;;
3549;SDS011;45572;48.804;8.330;2023-07-13T11:11:33;2.03;;;1.33;;
3549;SDS011;45572;48.804;8.330;2023-07-13T11:16:56;1.70;;;1.00;;
3549;SDS011;45572;48.804;8.330;2023-07-13T11:19:27;4.00;;;1.60;;
3549;SDS011;45572;48.804;8.330;2023-07-13T11:22:11;4.90;;;1.20;;
3549;SDS011;45572;48.804;8.330;2023-07-13T11:24:49;1.73;;;1.13;;
3549;SDS011;45572;48.804;8.330;2023-07-13T11:27:24;1.60;;;0.73;;
3549;SDS011;45572;48.804;8.330;2023-07-13T11:30:06;4.40;;;1.10;;
3549;SDS011;45572;48.804;8.330;2023-07-13T11:32:39;3.00;;;1.13;;
3549;SDS011;45572;48.804;8.330;2023-07-13T11:35:09;1.77;;;1.00;;
3549;SDS011;45572;48.804;8.330;2023-07-13T11:37:41;3.13;;;0.97;;
3549;SDS011;45572;48.804;8.330;2023-07-13T11:40:14;2.70;;;1.00;;
3549;SDS011;45572;48.804;8.330;2023-07-13T11:42:45;1.70;;;1.00;;
3549;SDS011;45572;48.804;8.330;2023-07-13T11:45:18;3.10;;;1.47;;
3549;SDS011;45572;48.804;8.330;2023-07-13T11:48:16;4.07;;;1.20;;
3549;SDS011;45572;48.804;8.330;2023-07-13T11:50:56;3.63;;;1.10;;
3549;SDS011;45572;48.804;8.330;2023-07-13T11:53:28;1.90;;;0.80;;
3549;SDS011;45572;48.804;8.330;2023-07-13T11:56:01;2.10;;;1.20;;
3549;SDS011;45572;48.804;8.330;2023-07-13T11:58:30;4.33;;;1.10;;
3549;SDS011;45572;48.804;8.330;2023-07-13T12:00:59;3.90;;;1.13;;
3549;SDS011;45572;48.804;8.330;2023-07-13T12:03:31;1.93;;;0.70;;
3549;SDS011;45572;48.804;8.330;2023-07-13T12:06:01;2.60;;;1.00;;
3549;SDS011;45572;48.804;8.330;2023-07-13T12:08:37;2.33;;;0.90;;
3549;SDS011;45572;48.804;8.330;2023-07-13T12:11:11;2.73;;;1.30;;
3549;SDS011;45572;48.804;8.330;2023-07-13T12:13:45;2.50;;;1.17;;
3549;SDS011;45572;48.804;8.330;2023-07-13T12:16:17;4.17;;;1.17;;
3549;SDS011;45572;48.804;8.330;2023-07-13T12:18:53;4.90;;;1.40;;
3549;SDS011;45572;48.804;8.330;2023-07-13T12:21:27;3.67;;;1.30;;
3549;SDS011;45572;48.804;8.330;2023-07-13T12:23:59;4.70;;;1.20;;
3549;SDS011;45572;48.804;8.330;2023-07-13T12:26:30;1.40;;;0.70;;
3549;SDS011;45572;48.804;8.330;2023-07-13T12:29:01;2.40;;;1.00;;
3549;SDS011;45572;48.804;8.330;2023-07-13T12:31:33;3.90;;;1.10;;
3549;SDS011;45572;48.804;8.330;2023-07-13T12:34:10;2.73;;;1.23;;
3549;SDS011;45572;48.804;8.330;2023-07-13T12:36:41;2.77;;;0.90;;
3549;SDS011;45572;48.804;8.330;2023-07-13T12:39:15;4.20;;;1.10;;
3549;SDS011;45572;48.804;8.330;2023-07-13T12:41:46;2.33;;;0.90;;
3549;SDS011;45572;48.804;8.330;2023-07-13T12:44:18;3.77;;;1.00;;
3549;SDS011;45572;48.804;8.330;2023-07-13T12:46:52;3.87;;;1.43;;
3549;SDS011;45572;48.804;8.330;2023-07-13T12:49:24;10.43;;;1.43;;
3549;SDS011;45572;48.804;8.330;2023-07-13T12:51:57;6.50;;;1.60;;
3549;SDS011;45572;48.804;8.330;2023-07-13T12:54:29;3.67;;;1.30;;
3549;SDS011;45572;48.804;8.330;2023-07-13T12:56:57;5.07;;;1.03;;
3549;SDS011;45572;48.804;8.330;2023-07-13T12:59:32;5.37;;;1.10;;
3549;SDS011;45572;48.804;8.330;2023-07-13T13:02:12;5.30;;;1.50;;
3549;SDS011;45572;48.804;8.330;2023-07-13T13:04:52;1.30;;;0.90;;
3549;SDS011;45572;48.804;8.330;2023-07-13T13:07:21;8.70;;;1.50;;
3549;SDS011;45572;48.804;8.330;2023-07-13T13:09:49;2.03;;;1.13;;
3549;SDS011;45572;48.804;8.330;2023-07-13T13:12:17;4.33;;;1.93;;
3549;SDS011;45572;48.804;8.330;2023-07-13T13:14:46;5.10;;;1.53;;
3549;SDS011;45572;48.804;8.330;2023-07-13T13:17:17;2.10;;;1.10;;
3549;SDS011;45572;48.804;8.330;2023-07-13T13:19:47;2.10;;;1.50;;
3549;SDS011;45572;48.804;8.330;2023-07-13T13:22:16;3.50;;;1.23;;
3549;SDS011;45572;48.804;8.330;2023-07-13T13:24:43;2.23;;;1.30;;
3549;SDS011;45572;48.804;8.330;2023-07-13T13:27:14;1.30;;;1.10;;
3549;SDS011;45572;48.804;8.330;2023-07-13T13:29:44;3.00;;;1.10;;
3549;SDS011;45572;48.804;8.330;2023-07-13T13:32:15;2.30;;;1.00;;
3549;SDS011;45572;48.804;8.330;2023-07-13T13:34:42;3.17;;;1.40;;
3549;SDS011;45572;48.804;8.330;2023-07-13T13:37:15;4.13;;;1.30;;
3549;SDS011;45572;48.804;8.330;2023-07-13T13:39:45;3.23;;;1.40;;
3549;SDS011;45572;48.804;8.330;2023-07-13T13:42:34;4.60;;;1.50;;
3549;SDS011;45572;48.804;8.330;2023-07-13T13:45:04;3.40;;;1.20;;
3549;SDS011;45572;48.804;8.330;2023-07-13T13:47:34;3.87;;;1.43;;
3549;SDS011;45572;48.804;8.330;2023-07-13T13:50:10;2.77;;;1.00;;
3549;SDS011;45572;48.804;8.330;2023-07-13T13:52:42;2.07;;;1.13;;
3549;SDS011;45572;48.804;8.330;2023-07-13T13:55:13;3.23;;;1.50;;
3549;SDS011;45572;48.804;8.330;2023-07-13T13:57:41;3.43;;;1.27;;
3549;SDS011;45572;48.804;8.330;2023-07-13T14:00:12;2.03;;;1.37;;
3549;SDS011;45572;48.804;8.330;2023-07-13T14:02:46;11.03;;;1.50;;
3549;SDS011;45572;48.804;8.330;2023-07-13T14:05:24;3.70;;;1.77;;
3549;SDS011;45572;48.804;8.330;2023-07-13T14:07:53;1.53;;;0.93;;
3549;SDS011;45572;48.804;8.330;2023-07-13T14:10:23;3.10;;;1.00;;
3549;SDS011;45572;48.804;8.330;2023-07-13T14:12:53;1.50;;;0.90;;
3549;SDS011;45572;48.804;8.330;2023-07-13T14:15:25;2.37;;;1.20;;
3549;SDS011;45572;48.804;8.330;2023-07-13T14:17:54;3.43;;;1.13;;
3549;SDS011;45572;48.804;8.330;2023-07-13T14:20:24;3.30;;;1.30;;
3549;SDS011;45572;48.804;8.330;2023-07-13T14:22:53;4.50;;;1.77;;
3549;SDS011;45572;48.804;8.330;2023-07-13T14:25:21;4.10;;;1.00;;
3549;SDS011;45572;48.804;8.330;2023-07-13T14:27:53;3.53;;;1.00;;
3549;SDS011;45572;48.804;8.330;2023-07-13T14:30:27;2.73;;;1.40;;
3549;SDS011;45572;48.804;8.330;2023-07-13T14:32:56;3.13;;;1.23;;
3549;SDS011;45572;48.804;8.330;2023-07-13T14:35:24;3.57;;;1.17;;
3549;SDS011;45572;48.804;8.330;2023-07-13T14:37:53;2.90;;;1.17;;
3549;SDS011;45572;48.804;8.330;2023-07-13T14:40:24;4.47;;;1.43;;
3549;SDS011;45572;48.804;8.330;2023-07-13T14:42:56;2.30;;;1.03;;
3549;SDS011;45572;48.804;8.330;2023-07-13T14:45:23;6.07;;;1.90;;
3549;SDS011;45572;48.804;8.330;2023-07-13T14:47:54;1.90;;;0.90;;
3549;SDS011;45572;48.804;8.330;2023-07-13T14:50:24;2.00;;;0.97;;
3549;SDS011;45572;48.804;8.330;2023-07-13T14:52:57;4.60;;;1.50;;
3549;SDS011;45572;48.804;8.330;2023-07-13T14:55:25;1.70;;;1.10;;
3549;SDS011;45572;48.804;8.330;2023-07-13T14:57:53;2.23;;;0.90;;
3549;SDS011;45572;48.804;8.330;2023-07-13T15:00:22;2.00;;;1.07;;
3549;SDS011;45572;48.804;8.330;2023-07-13T15:02:51;5.80;;;1.00;;
3549;SDS011;45572;48.804;8.330;2023-07-13T15:05:25;1.60;;;0.90;;
3549;SDS011;45572;48.804;8.330;2023-07-13T15:07:56;3.80;;;1.03;;
3549;SDS011;45572;48.804;8.330;2023-07-13T15:10:26;2.80;;;1.10;;
3549;SDS011;45572;48.804;8.330;2023-07-13T15:12:58;3.93;;;1.43;;
3549;SDS011;45572;48.804;8.330;2023-07-13T15:15:28;3.00;;;1.37;;
3549;SDS011;45572;48.804;8.330;2023-07-13T15:17:59;4.20;;;1.33;;
3549;SDS011;45572;48.804;8.330;2023-07-13T15:20:28;2.03;;;1.37;;
3549;SDS011;45572;48.804;8.330;2023-07-13T15:22:59;6.37;;;1.60;;
3549;SDS011;45572;48.804;8.330;2023-07-13T15:25:28;1.90;;;1.10;;
3549;SDS011;45572;48.804;8.330;2023-07-13T15:27:59;5.87;;;1.17;;
3549;SDS011;45572;48.804;8.330;2023-07-13T15:30:28;2.90;;;1.17;;
3549;SDS011;45572;48.804;8.330;2023-07-13T15:32:58;3.83;;;1.50;;